Time;durP1;ratioP1;P1;durP2;ratioP2;P2;SDS_P1;SDS_P2;PMS_P1;PMS_P2;Temp;Humidity;BMP_temperature;BMP_pressure;BME280_temperature;BME280_humidity;BME280_pressure;Samples;Min_cycle;Max_cycle;Signal;HPM_P1;HPM_P2
2023/10/15 00:00:29;;;;;;;1.17;0.50;;;;;;;21.97;67.85;101611.66;4996792;28;20027;-57
2023/10/15 00:02:55;;;;;;;0.95;0.60;;;;;;;21.79;68.14;101607.47;4993733;28;20034;-57
2023/10/15 00:05:27;;;;;;;1.35;0.50;;;;;;;21.91;68.11;101606.47;4998126;28;20034;-62
2023/10/15 00:07:54;;;;;;;1.20;0.70;;;;;;;21.91;68.54;101601.00;4998506;28;20054;-62
2023/10/15 00:10:23;;;;;;;2.80;1.10;;;;;;;21.94;68.32;101601.31;5004503;28;20080;-63
2023/10/15 00:12:51;;;;;;;3.05;0.98;;;;;;;21.83;68.12;101596.88;5002728;28;20356;-63
2023/10/15 00:15:18;;;;;;;1.65;1.20;;;;;;;21.62;69.68;101590.47;4993719;28;20439;-63
2023/10/15 00:17:58;;;;;;;6.20;2.05;;;;;;;21.71;69.23;101593.50;4993198;28;20498;-63
2023/10/15 00:20:31;;;;;;;5.47;2.88;;;;;;;21.22;71.27;101593.66;5006113;28;20131;-63
2023/10/15 00:23:04;;;;;;;4.13;2.20;;;;;;;21.24;71.05;101596.94;5012971;28;20039;-62
2023/10/15 00:25:35;;;;;;;6.22;2.50;;;;;;;21.25;71.07;101593.94;5000505;28;20467;-62
2023/10/15 00:28:08;;;;;;;6.30;2.67;;;;;;;21.02;71.96;101586.13;4993083;28;20026;-62
2023/10/15 00:30:37;;;;;;;2.97;2.13;;;;;;;21.04;71.79;101582.06;4993352;28;20034;-62
2023/10/15 00:33:06;;;;;;;3.45;2.10;;;;;;;21.05;71.89;101580.16;4993275;28;20022;-62
2023/10/15 00:35:33;;;;;;;2.70;2.00;;;;;;;20.80;72.87;101580.72;4993152;28;20022;-62
2023/10/15 00:38:15;;;;;;;3.15;2.33;;;;;;;20.75;73.42;101589.66;4992057;28;20057;-62
2023/10/15 00:40:42;;;;;;;3.33;2.13;;;;;;;20.71;73.01;101593.13;4992976;28;20038;-62
2023/10/15 00:43:10;;;;;;;3.53;2.28;;;;;;;20.60;73.86;101589.50;4993162;28;20526;-62
2023/10/15 00:45:45;;;;;;;4.90;2.58;;;;;;;20.59;73.63;101592.44;4992955;28;20068;-62
2023/10/15 00:48:36;;;;;;;4.35;2.50;;;;;;;20.52;74.30;101600.81;4992898;28;20031;-63
2023/10/15 00:51:10;;;;;;;4.03;2.35;;;;;;;20.48;73.94;101607.81;4992956;28;20054;-62
2023/10/15 00:53:48;;;;;;;5.93;2.88;;;;;;;20.25;75.17;101620.56;4993095;28;20113;-62
2023/10/15 00:56:18;;;;;;;3.67;2.65;;;;;;;20.34;75.08;101622.84;4992601;28;20031;-62
2023/10/15 01:03:54;;;;;;;6.47;3.05;;;;;;;20.11;75.74;101607.59;5013456;28;20195;-62
2023/10/15 01:12:21;;;;;;;9.45;7.05;;;;;;;19.89;76.99;101613.81;4983852;28;20034;-62
2023/10/15 01:14:47;;;;;;;6.38;4.35;;;;;;;19.80;76.92;101614.47;5016258;28;20052;-61
2023/10/15 01:17:13;;;;;;;3.92;3.08;;;;;;;19.69;77.98;101611.59;5017593;28;20033;-62
2023/10/15 01:19:40;;;;;;;3.45;2.30;;;;;;;19.76;77.46;101606.81;5008258;28;20041;-62
2023/10/15 01:22:10;;;;;;;5.53;2.58;;;;;;;19.85;77.24;101609.13;5008916;28;20379;-62
2023/10/15 01:24:38;;;;;;;3.92;2.42;;;;;;;19.76;77.40;101612.25;5012625;28;20656;-62
2023/10/15 01:29:34;;;;;;;6.03;2.97;;;;;;;19.81;77.65;101613.41;5022119;28;20030;-62
2023/10/15 01:32:20;;;;;;;7.03;3.33;;;;;;;19.68;78.04;101606.44;5029128;28;20171;-62
2023/10/15 01:34:49;;;;;;;5.13;2.75;;;;;;;19.60;78.54;101601.41;5009650;28;20474;-62
2023/10/15 01:40:00;;;;;;;4.32;3.20;;;;;;;19.60;78.66;101599.53;5012298;28;20026;-61
2023/10/15 01:47:56;;;;;;;6.20;3.47;;;;;;;19.16;80.50;101601.22;5008926;28;20030;-61
2023/10/15 01:50:33;;;;;;;;;;;;;;;19.16;80.67;101598.50;5002886;28;20037;-61
2023/10/15 01:53:04;;;;;;;4.80;3.40;;;;;;;19.13;80.77;101607.94;5010727;28;19926;-61
2023/10/15 01:55:31;;;;;;;8.32;4.30;;;;;;;19.16;81.04;101610.16;5004896;28;20040;-61
2023/10/15 01:58:03;;;;;;;5.95;4.28;;;;;;;19.01;81.67;101611.78;5015295;28;20033;-61
2023/10/15 02:03:08;;;;;;;6.65;3.78;;;;;;;18.94;82.39;101609.22;5013557;28;20080;-61
2023/10/15 02:05:47;;;;;;;6.68;4.15;;;;;;;18.85;82.79;101610.66;5005085;28;20053;-61
2023/10/15 02:08:23;;;;;;;7.88;4.07;;;;;;;18.70;84.27;101616.59;5013708;28;20041;-61
2023/10/15 02:10:49;;;;;;;7.10;3.80;;;;;;;18.58;84.89;101610.38;5016529;28;20161;-61
2023/10/15 02:13:16;;;;;;;4.22;3.38;;;;;;;18.55;85.38;101624.41;5015618;28;20077;-61
2023/10/15 02:15:44;;;;;;;4.80;3.90;;;;;;;18.38;85.81;101625.16;5032642;28;20034;-61
2023/10/15 02:18:19;;;;;;;5.43;4.00;;;;;;;18.12;87.81;101625.66;5034258;28;20363;-62
2023/10/15 02:23:18;;;;;;;7.55;4.18;;;;;;;17.91;89.84;101625.19;5016909;28;20083;-61
2023/10/15 02:26:07;;;;;;;8.25;4.63;;;;;;;18.09;89.00;101621.53;5013392;28;20486;-60
2023/10/15 02:28:32;;;;;;;6.57;4.10;;;;;;;17.77;91.14;101631.09;5011485;28;20547;-61
2023/10/15 02:31:22;;;;;;;5.68;4.35;;;;;;;17.97;90.25;101628.84;5003188;28;20058;-61
2023/10/15 02:33:46;;;;;;;6.70;4.55;;;;;;;18.06;89.72;101643.69;5004023;28;20084;-60
2023/10/15 02:36:16;;;;;;;5.35;4.50;;;;;;;17.99;90.09;101645.69;5013733;28;20037;-60
2023/10/15 02:38:52;;;;;;;6.75;4.47;;;;;;;17.75;90.99;101652.16;5012967;28;20125;-60
2023/10/15 02:41:31;;;;;;;6.53;5.25;;;;;;;17.72;91.70;101653.44;5014292;28;20038;-60
2023/10/15 02:43:57;;;;;;;7.72;5.43;;;;;;;17.78;92.54;101659.81;5014002;28;20026;-60
2023/10/15 02:48:59;;;;;;;7.50;5.68;;;;;;;17.78;92.62;101668.75;5014943;28;20026;-60
2023/10/15 02:51:26;;;;;;;9.15;6.40;;;;;;;17.83;92.12;101670.78;5014833;28;20041;-60
2023/10/15 02:53:54;;;;;;;9.50;6.53;;;;;;;17.73;92.73;101671.34;5014704;28;20156;-62
2023/10/15 02:56:22;;;;;;;6.80;6.13;;;;;;;17.66;93.34;101676.03;5014669;28;20026;-62
2023/10/15 02:58:50;;;;;;;6.63;5.60;;;;;;;17.63;93.45;101677.28;5013598;28;20104;-62
2023/10/15 03:01:19;;;;;;;5.93;5.22;;;;;;;17.66;93.52;101681.44;5003095;28;20505;-62
2023/10/15 03:03:50;;;;;;;5.68;4.93;;;;;;;17.58;94.03;101673.63;4994642;28;20069;-58
2023/10/15 03:06:41;;;;;;;4.90;3.92;;;;;;;17.56;94.17;101682.00;5002386;28;20104;-60
2023/10/15 03:09:11;;;;;;;6.93;4.85;;;;;;;17.63;93.69;101687.28;5011924;28;20046;-60
2023/10/15 03:11:38;;;;;;;6.60;5.35;;;;;;;17.50;94.31;101691.03;5009561;28;20506;-60
2023/10/15 03:14:06;;;;;;;6.55;5.45;;;;;;;17.55;94.06;101693.88;5013949;28;20037;-60
2023/10/15 03:16:33;;;;;;;5.15;4.45;;;;;;;17.57;94.35;101694.47;5012469;28;20051;-60
2023/10/15 03:21:59;;;;;;;5.80;4.82;;;;;;;17.39;95.13;101705.38;4995764;28;20046;-60
2023/10/15 03:24:27;;;;;;;5.60;4.93;;;;;;;17.34;95.66;101705.22;5012829;28;20037;-60
2023/10/15 03:26:55;;;;;;;6.13;4.90;;;;;;;17.43;94.64;101698.41;5011562;28;20049;-60
2023/10/15 03:29:23;;;;;;;5.68;4.55;;;;;;;17.42;95.38;101707.59;5013853;28;20028;-60
2023/10/15 03:31:54;;;;;;;6.07;4.97;;;;;;;17.42;95.65;101713.00;5013963;28;20113;-60
2023/10/15 03:34:23;;;;;;;4.60;4.10;;;;;;;17.41;95.85;101722.19;5013661;28;20184;-60
2023/10/15 03:36:58;;;;;;;4.00;3.60;;;;;;;17.48;95.59;101727.50;5012759;28;20030;-60
2023/10/15 03:44:47;;;;;;;3.40;3.10;;;;;;;17.55;95.55;101729.06;5013756;28;20026;-60
2023/10/15 03:47:16;;;;;;;3.10;2.80;;;;;;;17.53;95.57;101736.56;4993539;28;20031;-60
2023/10/15 03:49:51;;;;;;;3.47;2.97;;;;;;;17.50;95.68;101731.66;5000395;28;20030;-60
2023/10/15 03:52:20;;;;;;;3.00;2.70;;;;;;;17.49;95.56;101740.81;5013586;28;20058;-60
2023/10/15 03:54:50;;;;;;;3.15;2.85;;;;;;;17.61;94.91;101747.09;5008440;28;20054;-60
2023/10/15 03:57:18;;;;;;;2.65;2.45;;;;;;;17.44;95.62;101745.28;4993471;28;20076;-59
2023/10/15 03:59:53;;;;;;;2.92;2.60;;;;;;;17.51;94.91;101737.88;5009168;28;20033;-58
2023/10/15 04:02:30;;;;;;;2.67;2.47;;;;;;;17.48;95.75;101741.84;5012046;28;20041;-58
2023/10/15 04:05:11;;;;;;;3.03;2.63;;;;;;;17.42;95.35;101738.19;5011649;28;20084;-60
2023/10/15 04:07:48;;;;;;;2.53;2.33;;;;;;;17.50;95.10;101736.22;5012865;28;20022;-57
2023/10/15 04:10:23;;;;;;;2.38;2.10;;;;;;;17.47;95.71;101734.78;5012503;28;20045;-57
2023/10/15 04:12:50;;;;;;;2.83;2.55;;;;;;;17.35;95.96;101740.16;5010244;28;20044;-57
2023/10/15 04:15:17;;;;;;;3.20;2.90;;;;;;;17.26;96.34;101738.00;5011248;28;20038;-57
2023/10/15 04:17:45;;;;;;;3.05;2.53;;;;;;;17.52;95.44;101739.53;5011713;28;20444;-60
2023/10/15 04:20:25;;;;;;;3.22;2.92;;;;;;;17.40;95.75;101744.91;5011948;28;20034;-60
2023/10/15 04:22:52;;;;;;;3.67;3.33;;;;;;;17.30;96.34;101739.19;5011585;28;20032;-60
2023/10/15 04:25:25;;;;;;;4.03;3.63;;;;;;;17.35;96.62;101744.75;5010889;28;20372;-60
2023/10/15 04:27:52;;;;;;;5.68;3.95;;;;;;;17.36;96.27;101751.81;5011623;28;20026;-60
2023/10/15 04:30:25;;;;;;;4.32;3.55;;;;;;;17.37;96.23;101753.47;5010754;28;20042;-60
2023/10/15 04:32:56;;;;;;;4.13;3.72;;;;;;;17.49;95.23;101762.47;5011712;28;20026;-60
2023/10/15 04:35:26;;;;;;;4.30;3.90;;;;;;;17.27;95.66;101751.31;5012232;28;20060;-60
2023/10/15 04:37:52;;;;;;;4.03;3.67;;;;;;;17.47;95.52;101761.84;5012757;28;20018;-60
2023/10/15 04:40:27;;;;;;;5.28;4.75;;;;;;;17.34;95.33;101760.16;5011141;28;20482;-60
2023/10/15 04:42:59;;;;;;;5.18;3.92;;;;;;;17.28;95.90;101771.09;5011667;28;20105;-60
2023/10/15 04:48:01;;;;;;;;;;;;;;;17.27;96.60;101774.84;5011941;28;20693;-60
2023/10/15 04:50:29;;;;;;;4.72;4.03;;;;;;;17.07;97.74;101778.63;5010722;28;19917;-60
2023/10/15 04:53:23;;;;;;;4.63;4.10;;;;;;;17.14;97.51;101779.34;5008395;28;20482;-60
2023/10/15 04:55:43;;;;;;;5.32;3.80;;;;;;;17.01;98.41;101779.53;5008769;28;20569;-60
2023/10/15 04:58:11;;;;;;;3.40;3.10;;;;;;;16.96;98.22;101773.97;5012612;23;20046;-60
2023/10/15 05:00:46;;;;;;;4.03;3.53;;;;;;;17.01;97.90;101771.41;4990445;28;20073;-60
2023/10/15 05:03:13;;;;;;;4.00;3.63;;;;;;;16.96;98.71;101779.38;4991986;28;20042;-59
2023/10/15 05:05:41;;;;;;;5.63;4.40;;;;;;;16.89;99.19;101774.03;4989503;28;20113;-60
2023/10/15 05:08:11;;;;;;;5.53;4.65;;;;;;;16.88;100.00;101774.28;4991575;28;20037;-60
2023/10/15 05:10:49;;;;;;;4.32;3.92;;;;;;;16.99;99.37;101772.66;4991469;28;20042;-60
2023/10/15 05:13:17;;;;;;;4.30;3.88;;;;;;;16.91;99.55;101771.09;4992765;28;20383;-60
2023/10/15 05:15:50;;;;;;;4.65;4.20;;;;;;;17.02;98.43;101775.75;4991443;28;20034;-60
2023/10/15 05:18:21;;;;;;;4.40;4.00;;;;;;;17.01;99.18;101782.22;4991750;28;20498;-60
2023/10/15 05:20:49;;;;;;;4.35;3.90;;;;;;;17.06;98.64;101778.84;4990341;28;20034;-60
2023/10/15 05:23:17;;;;;;;4.53;4.10;;;;;;;17.00;98.95;101775.16;4992271;28;20296;-60
2023/10/15 05:25:43;;;;;;;5.25;4.47;;;;;;;16.93;99.33;101776.28;4982459;28;20029;-60
2023/10/15 05:28:14;;;;;;;4.88;4.28;;;;;;;16.94;99.75;101778.78;4989728;28;20152;-60
2023/10/15 05:30:44;;;;;;;5.30;4.43;;;;;;;16.95;99.44;101775.00;4991651;28;20135;-60
2023/10/15 05:33:10;;;;;;;4.35;3.95;;;;;;;17.05;98.90;101778.03;4990328;28;20092;-60
2023/10/15 05:35:40;;;;;;;4.90;4.40;;;;;;;17.11;98.23;101769.00;4991243;28;20113;-59
2023/10/15 05:38:10;;;;;;;4.43;3.58;;;;;;;17.22;98.14;101786.34;4991755;28;20030;-60
2023/10/15 05:40:37;;;;;;;4.65;4.25;;;;;;;17.10;98.10;101785.44;4991249;28;20085;-59
2023/10/15 05:43:07;;;;;;;4.88;4.38;;;;;;;17.09;98.53;101781.91;4990360;28;20026;-60
2023/10/15 05:45:33;;;;;;;5.63;5.00;;;;;;;17.17;97.99;101779.97;4990570;28;20140;-60
2023/10/15 05:48:00;;;;;;;4.95;4.22;;;;;;;17.01;98.95;101774.09;4991507;28;20113;-60
2023/10/15 05:50:26;;;;;;;4.43;3.90;;;;;;;17.07;98.40;101783.19;4992213;28;20126;-60
2023/10/15 05:52:53;;;;;;;5.22;4.50;;;;;;;17.02;98.93;101780.34;4987402;28;20029;-59
2023/10/15 05:55:20;;;;;;;4.35;3.95;;;;;;;16.99;99.43;101784.34;4972596;28;20027;-60
2023/10/15 05:57:49;;;;;;;6.25;5.13;;;;;;;16.81;100.00;101778.91;4975804;28;20031;-60
2023/10/15 06:00:18;;;;;;;3.78;3.47;;;;;;;16.97;99.58;101783.72;4990806;28;20050;-60
2023/10/15 06:02:46;;;;;;;7.05;4.75;;;;;;;16.64;100.00;101790.25;4988505;28;20031;-60
2023/10/15 06:05:13;;;;;;;4.45;3.88;;;;;;;16.75;100.00;101791.44;4991050;28;20068;-60
2023/10/15 06:07:43;;;;;;;3.35;3.05;;;;;;;16.76;100.00;101793.09;4991034;28;20031;-60
2023/10/15 06:10:11;;;;;;;3.92;3.53;;;;;;;16.60;100.00;101789.09;4991261;28;20026;-59
2023/10/15 06:12:42;;;;;;;4.03;3.63;;;;;;;16.69;100.00;101786.06;4989426;28;20038;-60
2023/10/15 06:15:09;;;;;;;5.50;5.00;;;;;;;16.73;100.00;101787.31;4980446;28;20041;-60
2023/10/15 06:17:36;;;;;;;6.72;4.55;;;;;;;16.68;100.00;101790.66;4980438;28;20038;-60
2023/10/15 06:20:12;;;;;;;5.22;4.22;;;;;;;16.73;100.00;101790.84;4989330;28;20041;-60
2023/10/15 06:22:46;;;;;;;4.50;4.05;;;;;;;16.79;100.00;101789.13;4990201;28;20173;-59
2023/10/15 06:25:16;;;;;;;4.80;3.90;;;;;;;16.66;100.00;101786.50;4991126;28;20112;-60
2023/10/15 06:27:42;;;;;;;4.20;3.80;;;;;;;16.78;100.00;101790.19;4988130;28;20640;-60
2023/10/15 06:30:14;;;;;;;3.67;3.38;;;;;;;16.80;99.77;101794.31;4991937;28;20029;-60
2023/10/15 06:32:43;;;;;;;4.18;3.78;;;;;;;16.68;100.00;101790.66;4988327;28;20030;-60
2023/10/15 06:35:14;;;;;;;4.47;4.07;;;;;;;16.64;100.00;101795.66;4989149;28;20041;-60
2023/10/15 06:37:41;;;;;;;4.90;3.67;;;;;;;16.76;100.00;101793.09;4993451;28;20176;-60
2023/10/15 06:40:11;;;;;;;4.43;3.80;;;;;;;16.75;100.00;101788.75;4994279;28;20030;-60
2023/10/15 06:42:37;;;;;;;5.60;4.38;;;;;;;16.77;100.00;101791.25;4994114;28;20537;-60
2023/10/15 06:45:06;;;;;;;5.85;4.15;;;;;;;16.86;100.00;101774.47;4994375;28;20034;-60
2023/10/15 06:47:35;;;;;;;5.97;4.55;;;;;;;16.74;100.00;101787.09;4992213;28;20050;-60
2023/10/15 06:50:06;;;;;;;5.72;5.15;;;;;;;16.73;100.00;101784.63;4994597;28;20467;-60
2023/10/15 06:52:42;;;;;;;6.85;5.00;;;;;;;16.85;99.78;101801.75;4992766;28;20042;-60
2023/10/15 06:55:11;;;;;;;8.02;5.03;;;;;;;16.82;100.00;101796.78;4981107;28;20172;-60
2023/10/15 06:57:41;;;;;;;5.05;4.45;;;;;;;16.84;100.00;101789.28;4992610;28;20026;-60
2023/10/15 07:00:12;;;;;;;5.38;4.53;;;;;;;16.80;100.00;101794.31;4992602;28;20046;-60
2023/10/15 07:02:39;;;;;;;5.78;4.30;;;;;;;16.87;99.63;101791.53;4994073;28;20034;-60
2023/10/15 07:05:06;;;;;;;5.07;4.53;;;;;;;16.68;99.75;101787.97;4994405;28;20097;-60
2023/10/15 07:07:35;;;;;;;5.90;4.43;;;;;;;16.86;99.47;101785.28;4992991;28;20126;-60
2023/10/15 07:10:07;;;;;;;5.03;4.53;;;;;;;16.76;99.43;101781.44;4994197;28;20038;-60
2023/10/15 07:12:34;;;;;;;6.57;5.15;;;;;;;16.79;99.32;101778.31;4992522;28;20037;-60
2023/10/15 07:15:01;;;;;;;5.50;5.00;;;;;;;16.67;100.00;101786.31;4992876;28;20398;-60
2023/10/15 07:17:28;;;;;;;6.88;5.75;;;;;;;16.74;99.60;101773.56;4993348;28;20036;-60
2023/10/15 07:19:54;;;;;;;5.93;5.18;;;;;;;16.64;100.00;101782.16;4993733;28;20030;-60
2023/10/15 07:22:21;;;;;;;6.90;6.03;;;;;;;16.76;99.98;101774.16;4993847;28;20387;-60
2023/10/15 07:24:47;;;;;;;6.85;6.10;;;;;;;16.88;99.16;101780.50;4994457;28;20027;-60
2023/10/15 07:27:15;;;;;;;7.05;6.35;;;;;;;16.93;98.76;101778.97;4992637;28;20430;-60
2023/10/15 07:29:41;;;;;;;8.45;6.97;;;;;;;16.86;98.79;101777.19;4993123;28;20107;-60
2023/10/15 07:32:07;;;;;;;8.82;6.82;;;;;;;16.83;98.88;101774.94;4994352;28;20054;-60
2023/10/15 07:34:34;;;;;;;8.73;7.82;;;;;;;16.79;99.25;101778.31;4992536;28;20037;-60
2023/10/15 07:37:00;;;;;;;8.68;7.57;;;;;;;16.78;99.73;101776.66;4993460;28;20030;-60
2023/10/15 07:39:26;;;;;;;8.77;6.95;;;;;;;16.78;100.00;101776.66;4993339;28;20031;-60
2023/10/15 07:41:52;;;;;;;10.35;8.75;;;;;;;16.82;100.00;101775.13;4992821;28;20026;-60
2023/10/15 07:44:19;;;;;;;11.05;7.97;;;;;;;16.75;100.00;101777.09;4992525;28;20050;-60
2023/10/15 07:46:51;;;;;;;9.32;8.27;;;;;;;16.68;100.00;101782.56;4991891;28;20033;-59
2023/10/15 07:49:18;;;;;;;9.07;8.13;;;;;;;16.75;100.00;101774.41;4993232;28;20033;-60
2023/10/15 07:51:44;;;;;;;9.32;7.80;;;;;;;16.84;99.99;101778.47;4993068;28;20074;-60
2023/10/15 07:54:10;;;;;;;11.07;8.65;;;;;;;16.92;99.26;101775.44;4993130;28;20030;-60
2023/10/15 07:56:36;;;;;;;8.95;7.47;;;;;;;16.87;99.76;101775.28;4993641;28;20086;-60
2023/10/15 07:59:05;;;;;;;9.23;7.80;;;;;;;16.82;99.64;101772.44;4992730;28;20514;-60
2023/10/15 08:01:31;;;;;;;10.93;9.10;;;;;;;16.76;99.48;101773.34;4992237;28;20046;-60
2023/10/15 08:04:02;;;;;;;8.90;8.00;;;;;;;16.79;100.00;101773.72;4992630;28;20027;-60
2023/10/15 08:06:29;;;;;;;11.77;9.07;;;;;;;16.85;99.08;101777.41;4974049;28;20130;-60
2023/10/15 08:08:55;;;;;;;8.80;7.90;;;;;;;16.96;99.02;101765.84;4992919;28;20442;-60
2023/10/15 08:11:22;;;;;;;9.65;8.63;;;;;;;16.89;99.09;101773.22;4991732;28;20372;-60
2023/10/15 08:13:48;;;;;;;10.05;8.52;;;;;;;16.91;98.40;101771.09;4992318;28;20034;-61
2023/10/15 08:16:18;;;;;;;9.20;8.15;;;;;;;16.94;98.70;101765.25;4991384;28;20026;-61
2023/10/15 08:18:45;;;;;;;10.63;8.85;;;;;;;16.98;99.19;101766.44;4993696;28;20157;-60
2023/10/15 08:21:12;;;;;;;10.50;9.15;;;;;;;16.80;99.54;101766.44;4991603;28;20254;-60
2023/10/15 08:23:39;;;;;;;10.32;8.90;;;;;;;16.91;99.10;101771.09;4992801;28;20077;-60
2023/10/15 08:26:06;;;;;;;10.85;9.40;;;;;;;16.97;99.21;101764.78;4991300;28;20113;-60
2023/10/15 08:28:32;;;;;;;8.68;7.78;;;;;;;16.89;99.27;101760.53;4993275;28;20037;-60
2023/10/15 08:31:00;;;;;;;10.45;9.13;;;;;;;16.75;100.00;101752.75;4992378;28;20037;-60
2023/10/15 08:33:26;;;;;;;9.10;7.95;;;;;;;16.73;100.00;101753.00;4991317;28;20034;-60
2023/10/15 08:35:52;;;;;;;9.45;8.23;;;;;;;16.96;99.42;101757.72;4992396;28;20030;-60
2023/10/15 08:38:19;;;;;;;9.38;7.60;;;;;;;16.85;99.04;101761.19;4992349;28;20034;-62
2023/10/15 08:40:45;;;;;;;12.20;9.80;;;;;;;16.88;99.76;101766.16;4992001;28;20026;-60
2023/10/15 08:43:17;;;;;;;10.27;7.70;;;;;;;16.81;99.71;101768.09;4981616;28;20033;-60
2023/10/15 08:45:45;;;;;;;8.95;8.02;;;;;;;16.73;100.00;101774.63;4990342;28;20027;-60
2023/10/15 08:48:14;;;;;;;10.10;9.10;;;;;;;16.89;100.00;101770.50;4990123;28;20026;-60
2023/10/15 08:50:43;;;;;;;10.02;9.02;;;;;;;16.85;99.70;101763.88;4989417;28;20019;-60
2023/10/15 08:53:09;;;;;;;9.88;8.88;;;;;;;16.83;100.00;101774.13;4991650;28;20044;-60
2023/10/15 08:55:39;;;;;;;10.90;9.55;;;;;;;16.83;100.00;101780.34;4992446;28;20022;-60
2023/10/15 08:58:07;;;;;;;10.15;9.05;;;;;;;16.89;100.00;101784.84;4989134;28;20501;-61
2023/10/15 09:00:36;;;;;;;11.90;9.82;;;;;;;16.93;99.82;101784.38;4984146;28;20076;-60
2023/10/15 09:03:04;;;;;;;10.80;9.07;;;;;;;16.81;100.00;101782.44;4992107;28;20034;-60
2023/10/15 09:05:33;;;;;;;14.05;9.38;;;;;;;16.84;100.00;101786.56;4990762;28;20030;-60
2023/10/15 09:08:07;;;;;;;9.10;8.20;;;;;;;16.83;100.00;101780.34;4991070;28;20022;-60
2023/10/15 09:10:36;;;;;;;8.35;7.45;;;;;;;16.84;100.00;101787.41;4992291;28;20050;-60
2023/10/15 09:13:05;;;;;;;9.68;8.68;;;;;;;16.83;100.00;101784.94;4992622;28;20041;-60
2023/10/15 09:15:31;;;;;;;11.75;9.60;;;;;;;16.77;98.99;101777.72;4990862;28;20077;-60
2023/10/15 09:17:58;;;;;;;10.40;7.78;;;;;;;16.86;98.82;101781.75;4988174;28;20029;-60
2023/10/15 09:20:27;;;;;;;22.05;10.85;;;;;;;16.66;99.86;101779.25;4991660;28;20038;-60
2023/10/15 09:22:57;;;;;;;9.63;8.65;;;;;;;16.64;100.00;101782.16;4991655;28;20530;-60
2023/10/15 09:25:28;;;;;;;10.05;8.20;;;;;;;16.70;100.00;101791.25;4991492;28;20455;-60
2023/10/15 09:27:54;;;;;;;12.57;9.95;;;;;;;16.73;100.00;101781.91;4990685;28;20036;-60
2023/10/15 09:30:25;;;;;;;9.80;8.65;;;;;;;16.74;100.00;101776.28;4991447;28;20027;-60
2023/10/15 09:32:52;;;;;;;10.05;8.10;;;;;;;16.72;99.98;101782.97;4991202;28;20026;-61
2023/10/15 09:35:20;;;;;;;8.32;6.43;;;;;;;16.76;99.92;101786.84;4991056;28;20082;-60
2023/10/15 09:37:46;;;;;;;12.00;8.75;;;;;;;16.73;100.00;101784.63;4990365;28;20037;-60
2023/10/15 09:40:19;;;;;;;9.43;8.07;;;;;;;16.75;100.00;101790.63;4991413;28;20057;-60
2023/10/15 09:42:53;;;;;;;11.32;8.68;;;;;;;16.74;100.00;101786.25;4991799;28;20110;-60
2023/10/15 09:45:26;;;;;;;9.73;7.90;;;;;;;16.83;100.00;101776.81;4989212;28;20109;-60
2023/10/15 09:50:27;;;;;;;9.15;7.38;;;;;;;16.72;100.00;101772.16;4988875;28;20057;-60
2023/10/15 09:53:01;;;;;;;9.38;7.22;;;;;;;16.67;100.00;101770.09;4981031;28;20027;-60
2023/10/15 09:55:32;;;;;;;8.95;7.13;;;;;;;16.80;99.90;101764.56;4976205;28;20044;-60
2023/10/15 09:58:15;;;;;;;7.82;6.93;;;;;;;16.69;100.00;101765.28;4980073;28;20042;-60
2023/10/15 10:00:59;;;;;;;8.52;6.72;;;;;;;16.44;100.00;101757.22;4978998;28;20038;-60
2023/10/15 10:03:38;;;;;;;8.13;6.55;;;;;;;16.66;100.00;101754.06;4981811;28;20505;-60
2023/10/15 10:06:11;;;;;;;7.03;6.32;;;;;;;16.60;100.00;101747.69;4991208;28;20038;-60
2023/10/15 10:08:56;;;;;;;10.45;7.95;;;;;;;16.44;100.00;101754.53;4992674;28;20168;-60
2023/10/15 10:11:40;;;;;;;11.65;8.95;;;;;;;16.43;100.00;101742.03;4980028;28;20049;-60
2023/10/15 10:14:33;;;;;;;10.68;8.02;;;;;;;16.40;100.00;101741.66;4978519;28;20353;-60
2023/10/15 10:17:01;;;;;;;12.48;9.38;;;;;;;16.34;100.00;101743.38;4995468;28;20041;-60
2023/10/15 10:19:29;;;;;;;10.15;7.85;;;;;;;16.49;100.00;101733.06;4994833;28;20106;-60
2023/10/15 10:21:55;;;;;;;11.00;8.30;;;;;;;16.63;100.00;101731.84;4978296;28;20031;-61
2023/10/15 10:24:23;;;;;;;11.52;8.77;;;;;;;16.60;100.00;101739.56;4991360;28;20034;-60
2023/10/15 10:26:54;;;;;;;9.00;7.25;;;;;;;16.39;100.00;101743.56;4977583;28;20050;-60
2023/10/15 10:29:25;;;;;;;14.07;9.25;;;;;;;16.29;100.00;101740.53;4992519;28;20046;-61
2023/10/15 10:31:54;;;;;;;9.93;7.50;;;;;;;16.36;100.00;101736.69;4983757;28;20023;-60
2023/10/15 10:34:30;;;;;;;18.33;8.77;;;;;;;15.82;100.00;101727.41;4975683;28;20058;-61
2023/10/15 10:36:56;;;;;;;14.73;9.63;;;;;;;15.62;100.00;101732.09;4975388;28;20058;-61
2023/10/15 10:39:23;;;;;;;11.18;7.70;;;;;;;15.64;100.00;101734.59;4978098;28;20479;-60
2023/10/15 10:41:51;;;;;;;10.13;7.40;;;;;;;15.53;100.00;101727.97;4987394;28;20026;-60
2023/10/15 10:44:23;;;;;;;10.10;7.32;;;;;;;15.79;100.00;101724.31;4984471;28;20026;-60
2023/10/15 10:46:52;;;;;;;15.80;10.15;;;;;;;15.52;100.00;101724.47;4981287;28;20030;-60
2023/10/15 10:49:34;;;;;;;9.73;7.50;;;;;;;15.78;100.00;101719.97;4974047;28;20046;-60
2023/10/15 10:52:14;;;;;;;10.95;8.02;;;;;;;15.89;100.00;101727.34;4978429;28;20057;-60
2023/10/15 10:54:41;;;;;;;14.30;8.07;;;;;;;15.58;100.00;101723.59;4975284;28;20026;-60
2023/10/15 10:57:08;;;;;;;9.80;6.80;;;;;;;15.68;100.00;101723.16;4984037;28;20042;-60
2023/10/15 10:59:39;;;;;;;11.63;8.02;;;;;;;15.80;100.00;101716.00;4990949;28;20018;-60
2023/10/15 11:02:06;;;;;;;12.93;8.88;;;;;;;15.75;100.00;101715.00;4994299;28;20069;-60
2023/10/15 11:04:33;;;;;;;11.82;8.13;;;;;;;15.63;100.00;101717.56;4979233;28;20045;-60
2023/10/15 11:07:00;;;;;;;11.80;7.95;;;;;;;15.80;100.00;101721.38;4993722;28;20489;-61
2023/10/15 11:09:28;;;;;;;10.65;7.60;;;;;;;15.66;100.00;101721.72;4993930;28;20419;-61
2023/10/15 11:11:56;;;;;;;12.45;8.32;;;;;;;15.61;100.00;101722.34;4995111;28;20023;-61
2023/10/15 11:14:25;;;;;;;26.40;10.98;;;;;;;15.43;100.00;101717.66;4989161;28;20033;-60
2023/10/15 11:16:52;;;;;;;10.55;7.57;;;;;;;15.39;100.00;101713.75;4981755;28;20079;-61
2023/10/15 11:19:20;;;;;;;13.50;8.80;;;;;;;15.57;100.00;101708.44;4975051;28;20074;-61
2023/10/15 11:21:48;;;;;;;9.65;7.70;;;;;;;15.76;100.00;101708.53;4989511;28;20038;-61
2023/10/15 11:24:16;;;;;;;14.98;9.05;;;;;;;15.73;100.00;101709.00;4975817;28;20109;-61
2023/10/15 11:26:44;;;;;;;24.25;9.02;;;;;;;15.79;100.00;101703.53;4988800;28;20030;-61
2023/10/15 11:29:22;;;;;;;13.55;9.50;;;;;;;15.82;100.00;101707.66;4992433;28;20034;-61
2023/10/15 11:31:57;;;;;;;16.50;10.68;;;;;;;15.79;100.00;101697.31;4990229;28;20057;-61
2023/10/15 11:34:25;;;;;;;12.75;9.57;;;;;;;15.84;100.00;101690.22;4977119;28;20034;-61
2023/10/15 11:36:58;;;;;;;17.90;11.30;;;;;;;15.73;100.00;101696.31;4981011;28;20042;-61
2023/10/15 11:39:29;;;;;;;24.02;12.40;;;;;;;15.66;100.00;101692.03;4992392;28;20092;-61
2023/10/15 11:41:56;;;;;;;17.13;11.40;;;;;;;15.69;100.00;101694.28;4978631;28;20450;-61
2023/10/15 11:44:30;;;;;;;13.05;8.82;;;;;;;15.87;100.00;101688.13;4985955;28;20026;-61
2023/10/15 11:46:57;;;;;;;12.80;8.45;;;;;;;15.99;100.00;101689.03;4985593;28;20643;-59
2023/10/15 11:49:27;;;;;;;14.80;10.15;;;;;;;16.24;100.00;101683.63;4976283;28;20798;-60
2023/10/15 11:51:57;;;;;;;13.45;9.13;;;;;;;16.08;100.00;101691.25;4976612;28;20101;-60
2023/10/15 11:54:27;;;;;;;31.55;10.63;;;;;;;16.05;100.00;101685.47;4992677;28;20105;-60
2023/10/15 11:57:00;;;;;;;10.52;7.50;;;;;;;16.09;100.00;101687.50;4991127;28;20037;-60
2023/10/15 11:59:26;;;;;;;9.57;6.68;;;;;;;16.13;100.00;101687.06;4988321;28;20554;-60
2023/10/15 12:01:53;;;;;;;9.25;7.15;;;;;;;16.37;100.00;101680.78;4982076;28;20034;-60
2023/10/15 12:04:23;;;;;;;11.18;8.30;;;;;;;16.32;100.00;101684.19;4984534;28;20026;-60
2023/10/15 12:06:50;;;;;;;9.20;6.80;;;;;;;16.24;100.00;101683.63;4992998;28;20088;-60
2023/10/15 12:09:24;;;;;;;9.07;6.63;;;;;;;16.12;100.00;101680.00;4993327;28;20438;-59
2023/10/15 12:11:51;;;;;;;9.13;6.90;;;;;;;15.99;100.00;101678.25;4977102;28;20517;-60
2023/10/15 12:14:18;;;;;;;8.75;6.30;;;;;;;15.90;100.00;101677.72;4985516;28;20036;-60